Time;durP1;ratioP1;P1;durP2;ratioP2;P2;SDS_P1;SDS_P2;PMS_P1;PMS_P2;Temp;Humidity;BMP_temperature;BMP_pressure;BME280_temperature;BME280_humidity;BME280_pressure;Samples;Min_cycle;Max_cycle;Signal;HPM_P1;HPM_P2
2021/05/21 00:00:30;;;;;;;5.20;4.15;;;333.50;2278.40;;;;;;5096301;28;20485;-62
2021/05/21 00:02:57;;;;;;;5.63;3.90;;;333.50;2278.40;;;;;;5096749;28;20364;-62
2021/05/21 00:05:24;;;;;;;5.47;4.00;;;333.40;2278.40;;;;;;5096217;28;20353;-62
2021/05/21 00:07:50;;;;;;;7.10;3.95;;;333.50;2278.40;;;;;;5096163;28;20349;-62
2021/05/21 00:10:17;;;;;;;5.65;4.00;;;333.40;2278.40;;;;;;5096252;28;20348;-63
2021/05/21 00:12:43;;;;;;;6.05;3.78;;;333.50;2278.40;;;;;;5096073;28;20397;-62
2021/05/21 00:15:10;;;;;;;5.70;4.30;;;333.40;2278.40;;;;;;5095792;28;20442;-62
2021/05/21 00:17:36;;;;;;;4.50;3.67;;;333.40;2278.40;;;;;;5096016;28;20471;-62
2021/05/21 00:20:03;;;;;;;4.90;3.97;;;333.30;2278.40;;;;;;5095894;28;20364;-62
2021/05/21 00:22:29;;;;;;;4.50;3.83;;;333.30;2278.40;;;;;;5095791;28;20363;-62
2021/05/21 00:24:56;;;;;;;5.72;3.80;;;333.30;2278.40;;;;;;5095835;28;20451;-63
2021/05/21 00:27:22;;;;;;;4.20;3.80;;;333.20;2278.40;;;;;;5095997;28;20360;-62
2021/05/21 00:29:48;;;;;;;5.80;3.72;;;333.10;2304.00;;;;;;5096303;28;20444;-62
2021/05/21 00:32:14;;;;;;;5.53;3.90;;;333.20;2304.00;;;;;;5095661;28;20430;-62
2021/05/21 00:34:41;;;;;;;4.07;3.28;;;333.10;2304.00;;;;;;5095925;28;20400;-62
2021/05/21 00:37:07;;;;;;;4.18;3.40;;;333.10;2304.00;;;;;;5095583;28;20342;-68
2021/05/21 00:39:33;;;;;;;6.47;3.97;;;333.10;2304.00;;;;;;5096125;28;20406;-63
2021/05/21 00:41:59;;;;;;;4.95;3.88;;;333.10;2278.40;;;;;;5094818;28;20372;-63
2021/05/21 00:44:25;;;;;;;6.07;3.50;;;333.10;2278.40;;;;;;5095289;28;20362;-63
2021/05/21 00:46:51;;;;;;;6.75;3.63;;;333.10;2278.40;;;;;;5095387;28;20356;-64
2021/05/21 00:49:18;;;;;;;7.30;4.07;;;333.10;2278.40;;;;;;5095314;28;20417;-63
2021/05/21 00:51:47;;;;;;;9.57;3.83;;;333.00;2278.40;;;;;;5095291;28;20441;-62
2021/05/21 00:54:18;;;;;;;4.60;3.17;;;333.00;2252.80;;;;;;5095225;28;20360;-68
2021/05/21 00:56:46;;;;;;;5.07;3.75;;;333.00;2252.80;;;;;;5095173;28;20472;-62
2021/05/21 00:59:12;;;;;;;4.60;3.28;;;333.10;2252.80;;;;;;5095186;28;20487;-68
2021/05/21 01:01:39;;;;;;;6.35;3.50;;;333.10;2252.80;;;;;;5095092;28;20420;-62
2021/05/21 01:04:06;;;;;;;3.55;3.25;;;333.10;2252.80;;;;;;5095302;28;20399;-62
2021/05/21 01:06:32;;;;;;;5.75;3.72;;;333.10;2252.80;;;;;;5094937;28;20440;-63
2021/05/21 01:08:59;;;;;;;5.40;3.25;;;333.10;2252.80;;;;;;5095013;28;20380;-63
2021/05/21 01:11:26;;;;;;;4.38;3.08;;;333.00;2252.80;;;;;;5094861;28;20454;-63
2021/05/21 01:13:52;;;;;;;5.78;3.15;;;333.00;2252.80;;;;;;5094827;28;20453;-62
2021/05/21 01:16:19;;;;;;;6.72;3.38;;;333.00;2278.40;;;;;;5094686;28;20442;-63
2021/05/21 01:18:45;;;;;;;4.55;3.35;;;332.90;2252.80;;;;;;5094746;28;20448;-63
2021/05/21 01:21:11;;;;;;;5.65;3.70;;;332.90;2252.80;;;;;;5094761;28;20360;-62
2021/05/21 01:23:37;;;;;;;5.32;3.60;;;332.90;2278.40;;;;;;5094887;28;20346;-63
2021/05/21 01:26:04;;;;;;;6.03;4.22;;;332.90;2252.80;;;;;;5094546;28;20505;-63
2021/05/21 01:28:30;;;;;;;4.20;3.70;;;332.80;2278.40;;;;;;5094857;28;20346;-63
2021/05/21 01:30:57;;;;;;;5.28;3.75;;;332.90;2252.80;;;;;;5094463;28;20023;-63
2021/05/21 01:33:23;;;;;;;5.00;3.53;;;332.90;2252.80;;;;;;5094478;28;20490;-63
2021/05/21 01:35:50;;;;;;;4.78;3.55;;;332.90;2252.80;;;;;;5095073;28;20460;-63
2021/05/21 01:38:17;;;;;;;7.45;3.63;;;332.90;2252.80;;;;;;5094440;28;20445;-63
2021/05/21 01:40:44;;;;;;;3.55;3.10;;;332.90;2252.80;;;;;;5094358;28;20396;-63
2021/05/21 01:43:12;;;;;;;3.90;3.50;;;332.80;2252.80;;;;;;5094209;28;20379;-63
2021/05/21 01:45:41;;;;;;;7.30;3.55;;;332.80;2278.40;;;;;;5094276;28;20350;-63
2021/05/21 01:48:10;;;;;;;6.65;3.85;;;332.80;2278.40;;;;;;5094593;28;20436;-62
2021/05/21 01:50:36;;;;;;;5.20;3.17;;;332.80;2252.80;;;;;;5094213;28;20510;-63
2021/05/21 01:53:02;;;;;;;5.95;3.60;;;332.80;2252.80;;;;;;5093249;28;20363;-63
2021/05/21 01:55:28;;;;;;;5.47;3.53;;;;;;;;;;5094146;28;20399;-63
2021/05/21 01:57:55;;;;;;;9.10;4.40;;;;;;;;;;5094624;28;20368;-63
2021/05/21 02:00:21;;;;;;;4.93;3.63;;;;;;;;;;5094011;28;20433;-63
2021/05/21 02:02:48;;;;;;;4.55;3.53;;;;;;;;;;5093983;28;20361;-63
2021/05/21 02:05:14;;;;;;;7.78;3.88;;;;;;;;;;5094265;28;20369;-63
2021/05/21 02:07:41;;;;;;;8.35;4.10;;;;;;;;;;5093896;28;20424;-63
2021/05/21 02:10:08;;;;;;;6.38;3.65;;;;;;;;;;5093863;28;20345;-63
2021/05/21 02:12:35;;;;;;;4.30;3.38;;;;;;;;;;5094411;28;20452;-62
2021/05/21 02:15:03;;;;;;;5.90;3.85;;;;;;;;;;5093602;28;20477;-63
2021/05/21 02:17:30;;;;;;;5.25;3.80;;;;;;;;;;5094159;28;20453;-63
2021/05/21 02:19:58;;;;;;;4.70;3.80;;;;;;;;;;5093998;28;20376;-63
2021/05/21 02:22:25;;;;;;;5.55;3.50;;;;;;;;;;5093646;28;20050;-63
2021/05/21 02:24:54;;;;;;;4.38;3.80;;;;;;;;;;5093949;28;20488;-63
2021/05/21 02:27:20;;;;;;;11.02;3.67;;;;;;;;;;5093670;28;20389;-63
2021/05/21 02:29:47;;;;;;;4.65;3.78;;;;;;;;;;5093690;28;20465;-63
2021/05/21 02:32:13;;;;;;;5.35;3.60;;;;;;;;;;5093545;28;20369;-63
2021/05/21 02:34:39;;;;;;;8.02;4.10;;;332.80;2227.20;;;;;;5093890;28;20476;-64
2021/05/21 02:37:05;;;;;;;5.32;3.88;;;308.00;2201.60;;;;;;5093578;28;20480;-64
2021/05/21 02:39:32;;;;;;;4.90;3.90;;;307.90;2227.20;;;;;;5093515;28;20472;-63
2021/05/21 02:41:58;;;;;;;6.25;3.83;;;307.80;2227.20;;;;;;5093494;28;20544;-63
2021/05/21 02:44:24;;;;;;;5.97;3.35;;;307.80;2252.80;;;;;;5093424;28;20477;-63
2021/05/21 02:46:50;;;;;;;3.95;3.50;;;307.80;2252.80;;;;;;5093793;28;20414;-63
2021/05/21 02:49:20;;;;;;;5.43;3.83;;;;;;;;;;5093429;28;20401;-62
2021/05/21 02:51:48;;;;;;;9.05;3.85;;;;;;;;;;5093418;28;20438;-63
2021/05/21 02:54:14;;;;;;;5.85;3.60;;;;;;;;;;5093904;28;20441;-62
2021/05/21 02:56:41;;;;;;;8.30;4.25;;;;;;;;;;5093358;28;20472;-61
2021/05/21 02:59:07;;;;;;;8.10;3.78;;;;;;;;;;5093650;28;20365;-61
2021/05/21 03:01:34;;;;;;;7.85;4.35;;;;;;;;;;5093307;28;20402;-62
2021/05/21 03:04:00;;;;;;;7.03;4.05;;;;;;;;;;5093039;28;20585;-62
2021/05/21 03:06:26;;;;;;;5.07;3.70;;;;;;;;;;5097293;28;20365;-62
2021/05/21 03:08:53;;;;;;;7.78;4.20;;;;;;;;;;5097620;28;20527;-61
2021/05/21 03:11:20;;;;;;;8.75;3.80;;;307.90;2227.20;;;;;;5097232;28;20342;-62
2021/05/21 03:13:46;;;;;;;6.47;4.30;;;;;;;;;;5097155;28;20369;-62
2021/05/21 03:16:13;;;;;;;5.05;3.40;;;;;;;;;;5097071;28;20447;-61
2021/05/21 03:18:39;;;;;;;5.53;4.13;;;;;;;;;;5097105;28;20368;-61
2021/05/21 03:21:06;;;;;;;7.25;3.67;;;;;;;;;;5097066;28;20369;-61
2021/05/21 03:23:33;;;;;;;5.22;4.07;;;;;;;;;;5096905;28;20471;-61
2021/05/21 03:26:00;;;;;;;7.13;4.05;;;;;;;;;;5096956;28;20365;-61
2021/05/21 03:28:26;;;;;;;4.68;4.00;;;;;;;;;;5097198;28;20341;-61
2021/05/21 03:30:53;;;;;;;4.43;3.42;;;;;;;;;;5097138;28;20391;-61
2021/05/21 03:33:19;;;;;;;4.45;3.80;;;;;;;;;;5097165;28;20411;-61
2021/05/21 03:35:47;;;;;;;4.65;3.78;;;;;;;;;;5096766;28;20337;-61
2021/05/21 03:38:13;;;;;;;10.50;6.43;;;;;;;;;;5096787;28;20408;-60
2021/05/21 03:40:41;;;;;;;10.63;5.50;;;;;;;;;;5096741;28;20372;-61
2021/05/21 03:43:07;;;;;;;8.52;4.95;;;;;;;;;;5096603;28;20465;-61
2021/05/21 03:45:34;;;;;;;5.55;3.88;;;;;;;;;;5096601;28;20368;-61
2021/05/21 03:48:00;;;;;;;6.30;3.95;;;;;;;;;;5096853;28;20367;-61
2021/05/21 03:50:27;;;;;;;6.32;3.72;;;;;;;;;;5096510;28;20129;-60
2021/05/21 03:52:54;;;;;;;11.98;10.40;;;;;;;;;;5096427;28;20398;-61
2021/05/21 03:55:21;;;;;;;9.18;8.20;;;;;;;;;;5096383;28;20437;-60
2021/05/21 03:57:47;;;;;;;8.70;5.97;;;;;;;;;;5096352;28;20344;-61
2021/05/21 04:00:16;;;;;;;6.22;4.20;;;;;;;;;;5096659;28;20393;-61
2021/05/21 04:02:42;;;;;;;5.38;4.10;;;;;;;;;;5096473;28;20379;-62
2021/05/21 04:05:09;;;;;;;6.50;4.05;;;;;;;;;;5096550;28;20403;-68
2021/05/21 04:07:35;;;;;;;9.18;4.38;;;;;;;;;;5096439;28;20395;-62
2021/05/21 04:10:01;;;;;;;7.20;4.32;;;;;;;;;;5096419;28;20408;-63
2021/05/21 04:12:28;;;;;;;5.43;3.75;;;;;;;;;;5096120;28;20099;-61
2021/05/21 04:14:57;;;;;;;5.43;3.72;;;;;;;;;;5095469;28;20484;-68
2021/05/21 04:17:24;;;;;;;20.52;10.13;;;;;;;;;;5095820;28;20363;-62
2021/05/21 04:19:51;;;;;;;8.57;4.78;;;;;;;;;;5096178;28;20116;-62
2021/05/21 04:22:18;;;;;;;8.70;4.97;;;;;;;;;;5095819;28;20411;-69
2021/05/21 04:24:44;;;;;;;11.55;7.13;;;;;;;;;;5095783;28;20469;-62
2021/05/21 04:27:11;;;;;;;9.68;5.72;;;;;;;;;;5095779;28;20407;-61
2021/05/21 04:29:37;;;;;;;9.23;6.38;;;;;;;;;;5094546;28;20410;-62
2021/05/21 04:32:05;;;;;;;6.45;5.18;;;;;;;;;;5095702;28;20364;-62
2021/05/21 04:34:32;;;;;;;10.30;6.03;;;;;;;;;;5095633;28;20570;-62
2021/05/21 04:36:58;;;;;;;12.40;6.80;;;;;;;;;;5096342;28;20377;-62
2021/05/21 04:39:25;;;;;;;11.77;7.65;;;;;;;;;;5095883;28;20453;-62
2021/05/21 04:41:52;;;;;;;10.40;7.28;;;;;;;;;;5095532;28;20457;-62
2021/05/21 04:44:18;;;;;;;10.77;7.75;;;;;;;;;;5095621;28;20372;-62
2021/05/21 04:46:45;;;;;;;10.82;6.20;;;;;;;;;;5095759;28;20447;-62
2021/05/21 04:49:11;;;;;;;7.25;4.88;;;;;;;;;;5095347;28;20406;-62
2021/05/21 04:51:37;;;;;;;8.35;4.45;;;;;;;;;;5095642;28;20364;-62
2021/05/21 04:54:04;;;;;;;6.30;4.43;;;;;;;;;;5095564;28;20024;-62
2021/05/21 04:56:31;;;;;;;6.70;4.00;;;;;;;;;;5095151;28;20126;-62
2021/05/21 04:58:58;;;;;;;6.32;4.45;;;;;;;;;;5095135;28;20463;-63
2021/05/21 05:01:24;;;;;;;5.85;4.30;;;;;;;;;;5095062;28;20457;-63
2021/05/21 05:03:51;;;;;;;6.47;4.30;;;;;;;;;;5094965;28;20388;-63
2021/05/21 05:06:17;;;;;;;9.02;4.32;;;;;;;;;;5095002;28;20399;-62
2021/05/21 05:08:44;;;;;;;10.93;3.97;;;;;;;;;;5095007;28;20444;-63
2021/05/21 05:11:10;;;;;;;6.72;4.03;;;;;;;;;;5095195;28;20483;-62
2021/05/21 05:13:36;;;;;;;7.57;3.80;;;;;;;;;;5094817;28;20445;-62
2021/05/21 05:16:03;;;;;;;14.27;7.55;;;;;;;;;;5094641;28;20384;-62
2021/05/21 05:18:29;;;;;;;6.13;4.93;;;;;;;;;;5094824;28;20474;-62
2021/05/21 05:20:55;;;;;;;8.85;4.45;;;;;;;;;;5094730;28;20390;-62
2021/05/21 05:23:22;;;;;;;5.45;4.53;;;;;;;;;;5093362;28;20032;-63
2021/05/21 05:25:48;;;;;;;10.95;4.65;;;;;;;;;;5095052;28;20522;-62
2021/05/21 05:28:16;;;;;;;6.43;4.35;;;;;;;;;;5094509;28;20483;-63
2021/05/21 05:30:42;;;;;;;7.57;4.50;;;;;;;;;;5094611;28;20442;-62
2021/05/21 05:33:11;;;;;;;7.65;4.50;;;;;;;;;;5094584;28;20376;-62
2021/05/21 05:35:37;;;;;;;8.07;4.55;;;;;;;;;;5094809;28;20392;-62
2021/05/21 05:38:04;;;;;;;5.68;4.15;;;;;;;;;;5094737;28;20472;-62
2021/05/21 05:40:31;;;;;;;4.50;3.70;;;;;;;;;;5094361;28;20420;-62
2021/05/21 05:42:58;;;;;;;7.15;4.40;;;;;;;;;;5094325;28;20368;-62
2021/05/21 05:45:24;;;;;;;7.53;4.13;;;;;;;;;;5094249;28;20387;-64
2021/05/21 05:47:50;;;;;;;6.03;4.05;;;;;;;;;;5094298;28;20388;-63
2021/05/21 05:50:17;;;;;;;10.27;4.03;;;;;;;;;;5094276;28;20407;-63
2021/05/21 05:52:43;;;;;;;8.60;3.92;;;;;;;;;;5094515;28;20405;-62
2021/05/21 05:55:10;;;;;;;5.70;4.03;;;;;;;;;;5094166;28;20368;-62
2021/05/21 05:57:36;;;;;;;4.88;3.97;;;;;;;;;;5094100;28;20402;-64
2021/05/21 06:00:04;;;;;;;4.78;3.75;;;;;;;;;;5094047;28;20417;-62
2021/05/21 06:02:30;;;;;;;6.55;4.15;;;;;;;;;;5092616;28;20498;-61
2021/05/21 06:05:02;;;;;;;6.75;4.68;;;;;;;;;;5093983;28;20372;-61
2021/05/21 06:07:29;;;;;;;8.10;4.05;;;;;;;;;;5094206;28;20402;-62
2021/05/21 06:09:55;;;;;;;5.85;4.30;;;;;;;;;;5094200;28;20445;-62
2021/05/21 06:12:21;;;;;;;6.63;4.15;;;;;;;;;;5093780;28;20372;-62
2021/05/21 06:14:48;;;;;;;5.65;3.80;;;;;;;;;;5093628;28;20494;-63
2021/05/21 06:17:17;;;;;;;5.72;4.18;;;;;;;;;;5093875;28;20453;-66
2021/05/21 06:19:43;;;;;;;7.40;4.40;;;;;;;;;;5093711;28;20444;-63
2021/05/21 06:22:10;;;;;;;7.88;4.00;;;;;;;;;;5093732;28;20020;-63
2021/05/21 06:24:38;;;;;;;6.45;4.07;;;358.60;2227.20;;;;;;5093568;28;20434;-67
2021/05/21 06:27:24;;;;;;;4.57;3.90;;;358.50;2227.20;;;;;;5093607;28;20448;-64
2021/05/21 06:29:51;;;;;;;4.97;4.28;;;358.40;2227.20;;;;;;5093519;28;20411;-68
2021/05/21 06:32:17;;;;;;;5.30;4.07;;;358.60;2227.20;;;;;;5093468;28;20514;-69
2021/05/21 06:34:43;;;;;;;10.40;4.40;;;358.60;2201.60;;;;;;5093485;28;20399;-68
2021/05/21 06:37:09;;;;;;;4.43;3.90;;;358.80;2201.60;;;;;;5093418;28;20345;-64
2021/05/21 06:39:35;;;;;;;7.38;4.30;;;359.20;2329.60;;;;;;5092849;28;20436;-64
2021/05/21 06:42:01;;;;;;;7.10;4.20;;;359.10;2150.40;;;;;;5093431;28;20110;-64
2021/05/21 06:44:27;;;;;;;9.23;3.90;;;359.20;2124.80;;;;;;5093363;28;20376;-63
2021/05/21 06:46:57;;;;;;;6.50;4.38;;;359.30;2150.40;;;;;;5093979;28;20020;-64
2021/05/21 06:49:24;;;;;;;7.72;4.07;;;384.00;2150.40;;;;;;5093358;28;20020;-63
2021/05/21 06:51:50;;;;;;;6.22;4.53;;;384.20;2124.80;;;;;;5093425;28;20476;-63
2021/05/21 06:54:18;;;;;;;9.15;4.22;;;384.30;2124.80;;;;;;5093254;28;20452;-64
2021/05/21 06:56:44;;;;;;;9.95;4.30;;;384.40;2099.20;;;;;;5093276;28;20367;-64
2021/05/21 06:59:10;;;;;;;9.10;4.10;;;384.50;2099.20;;;;;;5093187;28;20526;-63
2021/05/21 07:01:36;;;;;;;7.38;4.35;;;384.60;2124.80;;;;;;5093296;28;20461;-63
2021/05/21 07:04:03;;;;;;;5.97;4.10;;;384.70;2099.20;;;;;;5093272;28;20064;-63
2021/05/21 07:06:29;;;;;;;6.95;4.30;;;384.70;2099.20;;;;;;5093186;28;20385;-63
2021/05/21 07:08:55;;;;;;;10.18;4.88;;;384.90;2073.60;;;;;;5093405;28;20418;-64
2021/05/21 07:11:21;;;;;;;6.10;3.60;;;409.60;2099.20;;;;;;5093230;28;20150;-64
2021/05/21 07:13:47;;;;;;;4.43;3.75;;;409.60;2073.60;;;;;;5093263;28;20031;-63
2021/05/21 07:16:13;;;;;;;6.75;4.13;;;409.60;2099.20;;;;;;5093088;28;20047;-64
2021/05/21 07:18:39;;;;;;;7.75;3.78;;;409.60;2073.60;;;;;;5093222;28;20028;-64
2021/05/21 07:21:05;;;;;;;5.28;3.33;;;409.60;2073.60;;;;;;5093055;28;20456;-66
2021/05/21 07:23:31;;;;;;;5.97;3.83;;;409.60;2073.60;;;;;;5093194;28;20456;-64
2021/05/21 07:25:57;;;;;;;5.82;4.00;;;409.60;2099.20;;;;;;5093008;28;20483;-64
2021/05/21 07:31:45;;;;;;;5.65;4.10;;;409.80;2099.20;;;;;;5092998;28;20422;-63
2021/05/21 07:34:11;;;;;;;5.00;3.65;;;409.90;2073.60;;;;;;5093227;28;20455;-64
2021/05/21 07:36:41;;;;;;;6.00;4.20;;;410.00;2048.00;;;;;;5092869;28;20380;-68
2021/05/21 07:39:07;;;;;;;5.43;3.67;;;410.00;2073.60;;;;;;5093700;28;20348;-67
2021/05/21 07:41:34;;;;;;;5.03;4.30;;;409.90;2073.60;;;;;;5092851;28;20517;-68
2021/05/21 07:44:00;;;;;;;4.88;3.88;;;410.00;2073.60;;;;;;5092726;28;20415;-64
2021/05/21 07:46:27;;;;;;;7.03;3.80;;;410.10;2048.00;;;;;;5092841;28;20024;-69
2021/05/21 07:48:58;;;;;;;5.38;4.05;;;410.20;2073.60;;;;;;5092838;28;20028;-67
2021/05/21 07:51:28;;;;;;;5.90;4.20;;;410.20;2048.00;;;;;;5092983;28;20369;-68
2021/05/21 07:53:54;;;;;;;6.45;4.30;;;410.20;2099.20;;;;;;5096425;28;20420;-68
2021/05/21 07:56:20;;;;;;;6.20;4.38;;;410.20;2073.60;;;;;;5097042;28;20445;-68
2021/05/21 07:59:01;;;;;;;7.20;4.22;;;410.20;2048.00;;;;;;5096442;28;20414;-66
2021/05/21 08:01:35;;;;;;;5.78;4.03;;;410.10;2048.00;;;;;;5096411;28;20495;-68
2021/05/21 08:04:01;;;;;;;5.05;4.53;;;410.20;2022.40;;;;;;5097132;28;20365;-69
2021/05/21 08:06:27;;;;;;;7.35;4.82;;;410.20;2073.60;;;;;;5096247;28;20397;-68
2021/05/21 08:08:54;;;;;;;5.20;4.70;;;410.30;2073.60;;;;;;5096294;28;20456;-68
2021/05/21 08:11:21;;;;;;;8.27;4.60;;;410.30;2124.80;;;;;;5096197;28;20389;-68
2021/05/21 08:13:47;;;;;;;10.00;4.75;;;410.40;2073.60;;;;;;5094895;28;20024;-68
2021/05/21 08:16:14;;;;;;;9.43;5.32;;;410.40;2099.20;;;;;;5095943;28;20042;-67
2021/05/21 08:18:40;;;;;;;9.02;4.65;;;435.20;2099.20;;;;;;5095980;28;20353;-68
2021/05/21 08:21:07;;;;;;;6.15;4.60;;;435.20;2073.60;;;;;;5096603;28;20452;-68
2021/05/21 08:23:34;;;;;;;6.47;4.80;;;435.30;2073.60;;;;;;5095911;28;20531;-68
2021/05/21 08:26:01;;;;;;;4.97;4.45;;;435.30;2048.00;;;;;;5095840;28;20384;-68
2021/05/21 08:28:27;;;;;;;8.75;4.30;;;435.30;2073.60;;;;;;5094641;28;20020;-68
2021/05/21 08:30:55;;;;;;;10.65;4.88;;;435.30;2048.00;;;;;;5095860;28;20012;-67
2021/05/21 08:33:21;;;;;;;7.18;4.35;;;435.30;2073.60;;;;;;5096350;28;20020;-68
2021/05/21 08:35:47;;;;;;;7.20;4.00;;;435.40;2048.00;;;;;;5095721;28;20411;-68
2021/05/21 08:38:14;;;;;;;5.97;4.47;;;435.40;2022.40;;;;;;5095653;28;20350;-64
2021/05/21 08:40:40;;;;;;;7.97;4.78;;;435.50;1996.80;;;;;;5095694;28;20457;-64
2021/05/21 08:43:09;;;;;;;6.95;4.43;;;435.60;2048.00;;;;;;5094165;28;20365;-66
2021/05/21 08:45:36;;;;;;;8.80;4.55;;;435.60;2022.40;;;;;;5095471;28;20475;-67
2021/05/21 08:48:03;;;;;;;6.15;4.40;;;435.70;2048.00;;;;;;5095463;28;20338;-69
2021/05/21 08:50:30;;;;;;;7.97;4.63;;;435.70;2022.40;;;;;;5095375;28;20466;-69
2021/05/21 08:52:59;;;;;;;6.10;4.10;;;435.70;2048.00;;;;;;5095411;28;20449;-69
2021/05/21 08:55:25;;;;;;;5.60;4.13;;;435.80;2022.40;;;;;;5095293;28;20372;-69
2021/05/21 08:57:51;;;;;;;7.32;3.72;;;435.90;2022.40;;;;;;5095109;28;20564;-67
2021/05/21 09:00:18;;;;;;;10.73;4.40;;;435.90;2022.40;;;;;;5095279;28;20055;-65
2021/05/21 09:02:46;;;;;;;10.27;5.10;;;435.90;2048.00;;;;;;5094619;28;20355;-69
2021/05/21 09:05:12;;;;;;;5.10;4.40;;;435.90;2048.00;;;;;;5095206;28;20395;-68
2021/05/21 09:07:42;;;;;;;6.45;4.38;;;435.90;2022.40;;;;;;5095154;28;20012;-70
2021/05/21 09:10:15;;;;;;;8.45;4.32;;;436.00;2048.00;;;;;;5095061;28;20372;-68
2021/05/21 09:12:49;;;;;;;5.47;3.90;;;;;;;;;;5094942;28;20365;-68
2021/05/21 09:15:23;;;;;;;7.13;3.95;;;460.90;2048.00;;;;;;5094568;28;20051;-64
2021/05/21 09:17:55;;;;;;;8.93;3.53;;;460.90;2227.20;;;;;;5094834;28;20368;-67
2021/05/21 09:20:26;;;;;;;6.40;3.70;;;460.80;1996.80;;;;;;5094677;28;20403;-69
2021/05/21 09:23:05;;;;;;;4.55;3.10;;;460.80;1996.80;;;;;;5094566;28;20397;-65
2021/05/21 09:25:44;;;;;;;5.13;3.10;;;460.80;1945.60;;;;;;5095151;28;20359;-67
2021/05/21 09:28:32;;;;;;;3.35;2.78;;;460.80;1945.60;;;;;;5094594;28;20368;-65
2021/05/21 09:31:25;;;;;;;5.18;3.13;;;460.90;1971.20;;;;;;5094869;28;20361;-69
2021/05/21 09:33:53;;;;;;;4.20;2.60;;;460.90;2048.00;;;;;;5093202;28;20502;-68
2021/05/21 09:36:39;;;;;;;3.30;2.20;;;460.90;1920.00;;;;;;5094383;28;20460;-68
2021/05/21 09:39:12;;;;;;;4.75;2.75;;;461.00;1894.40;;;;;;5094386;28;20458;-67
2021/05/21 09:41:53;;;;;;;6.15;2.22;;;461.00;1945.60;;;;;;5094377;28;20373;-68
2021/05/21 09:44:22;;;;;;;5.35;2.15;;;461.00;1868.80;;;;;;5094302;28;20066;-66
2021/05/21 09:46:51;;;;;;;2.72;2.05;;;461.10;1817.60;;;;;;5094214;28;20368;-64
2021/05/21 09:49:32;;;;;;;2.38;1.70;;;461.10;1843.20;;;;;;5094109;28;20362;-64
2021/05/21 09:52:00;;;;;;;5.82;2.63;;;461.10;1792.00;;;;;;5094708;28;20353;-68
2021/05/21 09:54:27;;;;;;;5.18;2.78;;;461.10;1868.80;;;;;;5093940;28;20399;-68
2021/05/21 09:57:09;;;;;;;5.18;2.85;;;461.20;1894.40;;;;;;5094023;28;20459;-67
2021/05/21 09:59:38;;;;;;;6.70;2.47;;;461.20;1894.40;;;;;;5093923;28;20364;-68
2021/05/21 10:02:22;;;;;;;4.65;2.58;;;461.30;1868.80;;;;;;5093915;28;20368;-68
2021/05/21 10:04:49;;;;;;;4.55;3.00;;;461.30;1792.00;;;;;;5093815;28;20436;-69
2021/05/21 10:07:16;;;;;;;3.95;2.80;;;461.30;1894.40;;;;;;5093869;28;20449;-66
2021/05/21 10:09:43;;;;;;;5.63;2.40;;;461.40;1945.60;;;;;;5093737;28;20036;-69
2021/05/21 10:12:09;;;;;;;4.88;2.33;;;461.70;1766.40;;;;;;5093797;28;20391;-66
2021/05/21 10:14:36;;;;;;;4.22;1.90;;;461.50;1740.80;;;;;;5092926;28;20453;-69
2021/05/21 10:17:04;;;;;;;3.90;2.80;;;461.60;1817.60;;;;;;5093774;28;20410;-66
2021/05/21 10:19:32;;;;;;;5.88;2.50;;;461.60;1817.60;;;;;;5093713;28;20567;-65
2021/05/21 10:22:02;;;;;;;11.00;2.58;;;461.60;1894.40;;;;;;5093555;28;20484;-70
2021/05/21 10:24:36;;;;;;;3.00;2.30;;;461.60;1792.00;;;;;;5093558;28;20118;-68
2021/05/21 10:27:08;;;;;;;5.20;2.47;;;486.40;1843.20;;;;;;5093691;28;20435;-68
2021/05/21 10:29:35;;;;;;;9.93;2.97;;;486.40;1792.00;;;;;;5093663;28;20372;-65
2021/05/21 10:32:15;;;;;;;3.92;2.53;;;486.40;1817.60;;;;;;5092311;28;20350;-70
2021/05/21 10:35:00;;;;;;;5.75;2.60;;;486.40;1792.00;;;;;;5093591;28;20546;-68
2021/05/21 10:37:31;;;;;;;3.17;1.88;;;486.50;1817.60;;;;;;5092200;28;20527;-69
2021/05/21 10:40:01;;;;;;;5.60;2.40;;;486.60;1715.20;;;;;;5093480;28;20407;-64
2021/05/21 10:42:28;;;;;;;6.72;2.25;;;486.60;1766.40;;;;;;5093369;28;20482;-63
2021/05/21 10:45:07;;;;;;;3.40;2.05;;;486.70;1740.80;;;;;;5093672;28;20364;-67
2021/05/21 10:47:38;;;;;;;2.88;1.70;;;486.70;1715.20;;;;;;5093403;28;20403;-66
2021/05/21 10:50:08;;;;;;;10.82;2.22;;;486.70;1638.40;;;;;;5093318;28;20365;-68
2021/05/21 10:52:53;;;;;;;3.35;1.70;;;486.70;1689.60;;;;;;5093270;28;20359;-65
2021/05/21 10:55:37;;;;;;;3.72;1.80;;;486.80;1715.20;;;;;;5093236;28;20360;-68
2021/05/21 10:58:04;;;;;;;2.65;1.50;;;486.80;1612.80;;;;;;5093582;28;20501;-67
2021/05/21 11:00:31;;;;;;;4.07;1.73;;;486.80;1638.40;;;;;;5093208;28;20343;-67
2021/05/21 11:02:57;;;;;;;5.47;2.00;;;486.80;1715.20;;;;;;5093070;28;20360;-65
2021/05/21 11:05:34;;;;;;;4.43;1.60;;;486.80;1664.00;;;;;;5092256;28;20367;-64
2021/05/21 11:08:02;;;;;;;2.72;1.80;;;486.90;1587.20;;;;;;5093246;28;20368;-68
2021/05/21 11:10:50;;;;;;;3.78;1.95;;;486.90;1612.80;;;;;;5093421;28;20517;-66
2021/05/21 11:13:17;;;;;;;4.15;1.73;;;486.90;1664.00;;;;;;5093199;28;20020;-70
2021/05/21 11:15:54;;;;;;;2.70;1.75;;;486.90;1664.00;;;;;;5092895;28;20387;-63
2021/05/21 11:18:24;;;;;;;6.03;1.50;;;486.90;1664.00;;;;;;5093070;28;20372;-65
2021/05/21 11:21:03;;;;;;;4.43;1.88;;;487.00;1715.20;;;;;;5093405;28;20415;-63
2021/05/21 11:23:35;;;;;;;4.95;1.90;;;487.10;1638.40;;;;;;5093288;28;20419;-64
2021/05/21 11:26:04;;;;;;;4.55;1.60;;;487.10;1664.00;;;;;;5096201;28;20372;-66
2021/05/21 11:28:38;;;;;;;3.35;1.40;;;487.10;1612.80;;;;;;5096898;28;20539;-69
2021/05/21 11:31:19;;;;;;;3.95;1.45;;;487.20;1587.20;;;;;;5096873;28;20446;-70
2021/05/21 11:33:48;;;;;;;12.43;1.88;;;487.20;1612.80;;;;;;5096673;28;20436;-68
2021/05/21 11:36:15;;;;;;;3.05;1.75;;;487.20;1638.40;;;;;;5096444;28;20380;-65
2021/05/21 11:38:41;;;;;;;3.42;1.20;;;487.30;1638.40;;;;;;5096519;28;20373;-69
2021/05/21 11:41:09;;;;;;;5.55;1.48;;;487.30;1561.60;;;;;;5096576;28;20073;-69
2021/05/21 11:43:43;;;;;;;7.22;1.60;;;487.30;1638.40;;;;;;5096554;28;20361;-64
2021/05/21 11:46:21;;;;;;;5.95;1.50;;;512.00;1612.80;;;;;;5096572;28;20365;-70
2021/05/21 11:48:49;;;;;;;3.47;1.45;;;512.00;1638.40;;;;;;5097066;28;20338;-64
2021/05/21 11:51:23;;;;;;;3.83;1.40;;;512.10;1561.60;;;;;;5096711;28;20364;-69
2021/05/21 11:53:53;;;;;;;2.78;1.30;;;512.10;1561.60;;;;;;5096947;28;20099;-69
2021/05/21 11:56:31;;;;;;;2.28;1.30;;;512.10;1587.20;;;;;;5096330;28;20040;-68
2021/05/21 11:59:06;;;;;;;2.15;1.20;;;512.10;1561.60;;;;;;5096506;28;20471;-68
2021/05/21 12:01:37;;;;;;;4.15;1.27;;;512.20;1561.60;;;;;;5096192;28;20403;-69
2021/05/21 12:04:07;;;;;;;6.45;1.70;;;512.30;1561.60;;;;;;5095838;28;20353;-69
2021/05/21 12:06:35;;;;;;;3.40;1.30;;;512.30;1587.20;;;;;;5096153;28;20360;-69
2021/05/21 12:09:05;;;;;;;2.13;1.40;;;512.30;1536.00;;;;;;5096120;28;20051;-66
2021/05/21 12:11:32;;;;;;;4.72;1.42;;;512.30;1561.60;;;;;;5096128;28;20399;-65
2021/05/21 12:14:13;;;;;;;2.38;1.00;;;512.40;1561.60;;;;;;5095971;28;20453;-65
2021/05/21 12:16:41;;;;;;;2.35;0.93;;;512.40;1484.80;;;;;;5095641;28;20480;-66
2021/05/21 12:19:10;;;;;;;1.42;1.00;;;512.50;1484.80;;;;;;5094715;28;20380;-66
2021/05/21 12:21:46;;;;;;;4.30;1.00;;;512.50;1510.40;;;;;;5095846;28;20401;-68
2021/05/21 12:24:13;;;;;;;3.42;1.20;;;512.50;1459.20;;;;;;5095731;28;20372;-70
2021/05/21 12:26:41;;;;;;;4.65;1.02;;;512.50;1408.00;;;;;;5095817;28;20382;-69
2021/05/21 12:29:10;;;;;;;2.67;1.20;;;512.60;1433.60;;;;;;5096185;28;20342;-69
2021/05/21 12:31:46;;;;;;;3.97;1.10;;;512.60;1408.00;;;;;;5095620;28;20452;-67
2021/05/21 12:34:20;;;;;;;1.52;1.00;;;512.70;1408.00;;;;;;5095967;28;20348;-70
2021/05/21 12:37:04;;;;;;;6.68;1.17;;;512.70;1433.60;;;;;;5094668;28;20476;-67
2021/05/21 12:39:33;;;;;;;;;;;512.80;1433.60;;;;;;5096061;28;20450;-70
2021/05/21 12:42:01;;;;;;;23.80;2.35;;;512.80;1484.80;;;;;;5096116;28;20243;-70
2021/05/21 12:44:28;;;;;;;4.88;1.50;;;512.90;1510.40;;;;;;5095336;28;20465;-68
2021/05/21 12:46:56;;;;;;;27.85;2.83;;;512.90;1484.80;;;;;;5095337;28;20401;-70
2021/05/21 12:49:25;;;;;;;3.83;1.20;;;537.60;1510.40;;;;;;5095218;28;20391;-68
2021/05/21 12:51:54;;;;;;;6.25;1.13;;;537.60;1408.00;;;;;;5095320;28;20467;-64
2021/05/21 12:54:23;;;;;;;9.05;1.00;;;537.60;1331.20;;;;;;5504405;22;20041;-92
2021/05/21 12:57:10;;;;;;;19.40;1.65;;;537.70;1408.00;;;;;;5039153;28;20127;-94
2021/05/21 12:59:54;;;;;;;3.50;1.10;;;537.70;1408.00;;;;;;5036752;28;20091;-96
2021/05/21 13:02:22;;;;;;;4.05;1.50;;;537.70;1433.60;;;;;;5036442;28;20049;-96
2021/05/21 13:04:59;;;;;;;3.08;1.00;;;537.70;1459.20;;;;;;5041458;28;20034;-95
2021/05/21 13:07:26;;;;;;;2.25;1.30;;;537.80;1459.20;;;;;;5040216;28;20030;-95